createdAt,value
2023-04-21T00:00:28.653Z,10.08
2023-04-21T00:02:58.751Z,9.76
2023-04-21T00:05:29.467Z,9.73
2023-04-21T00:07:58.688Z,9.83
2023-04-21T00:10:27.710Z,9.88
2023-04-21T00:12:57.063Z,9.80
2023-04-21T00:15:26.348Z,9.61
2023-04-21T00:17:55.300Z,9.55
2023-04-21T00:20:26.953Z,9.55
2023-04-21T00:22:58.658Z,9.40
2023-04-21T00:25:28.025Z,9.35
2023-04-21T00:27:57.078Z,9.49
2023-04-21T00:30:26.229Z,9.46
2023-04-21T00:32:56.175Z,9.45
2023-04-21T00:35:26.140Z,9.47
2023-04-21T00:37:58.409Z,9.44
2023-04-21T00:40:27.595Z,9.40
2023-04-21T00:43:02.216Z,9.37
2023-04-21T00:45:31.273Z,9.52
2023-04-21T00:48:03.766Z,9.14
2023-04-21T00:50:34.292Z,9.22
2023-04-21T00:53:08.143Z,9.48
2023-04-21T00:55:40.455Z,9.47
2023-04-21T00:58:11.087Z,9.41
2023-04-21T01:00:40.603Z,9.41
2023-04-21T01:03:09.815Z,9.12
2023-04-21T01:05:39.037Z,9.47
2023-04-21T01:08:09.405Z,9.42
2023-04-21T01:10:38.546Z,9.31
2023-04-21T01:13:08.285Z,9.39
2023-04-21T01:15:37.174Z,9.23
2023-04-21T01:18:07.585Z,9.26
2023-04-21T01:20:36.795Z,9.03
2023-04-21T01:23:11.722Z,8.96
2023-04-21T01:25:42.688Z,9.19
2023-04-21T01:28:11.812Z,9.20
2023-04-21T01:30:45.517Z,9.23
2023-04-21T01:33:15.094Z,9.25
2023-04-21T01:35:44.118Z,9.15
2023-04-21T01:38:19.557Z,9.11
2023-04-21T01:40:50.885Z,9.13
2023-04-21T01:43:22.151Z,8.97
2023-04-21T01:45:51.897Z,9.03
2023-04-21T01:48:21.108Z,9.00
2023-04-21T01:50:50.061Z,8.07
2023-04-21T01:53:20.692Z,9.05
2023-04-21T01:55:49.895Z,9.27
2023-04-21T01:58:19.134Z,9.23
2023-04-21T02:00:48.250Z,9.30
2023-04-21T02:03:17.669Z,9.23
2023-04-21T02:05:48.292Z,9.31
2023-04-21T02:08:18.516Z,9.43
2023-04-21T02:10:49.497Z,9.31
2023-04-21T02:13:18.698Z,9.44
2023-04-21T02:15:50.371Z,9.32
2023-04-21T02:18:22.266Z,9.17
2023-04-21T02:20:56.072Z,9.26
2023-04-21T02:23:25.298Z,9.21
2023-04-21T02:25:56.766Z,9.17
2023-04-21T02:28:25.705Z,9.19
2023-04-21T02:30:54.650Z,9.27
2023-04-21T02:33:26.944Z,9.06
2023-04-21T02:35:55.923Z,9.16
2023-04-21T02:38:30.366Z,9.12
2023-04-21T02:41:00.778Z,9.08
2023-04-21T02:43:29.890Z,9.13
2023-04-21T02:45:58.998Z,9.25
2023-04-21T02:48:28.496Z,9.20
2023-04-21T02:51:01.766Z,8.81
2023-04-21T02:53:30.985Z,8.92
2023-04-21T02:56:06.052Z,9.09
2023-04-21T02:58:35.205Z,8.97
2023-04-21T03:01:05.523Z,9.19
2023-04-21T03:03:37.409Z,9.07
2023-04-21T03:06:07.585Z,9.13
2023-04-21T03:08:36.713Z,9.03
2023-04-21T03:11:07.273Z,9.02
2023-04-21T03:13:36.369Z,9.09
2023-04-21T03:16:06.719Z,9.20
2023-04-21T03:18:36.682Z,8.98
2023-04-21T03:21:07.241Z,9.16
2023-04-21T03:23:36.506Z,9.12
2023-04-21T03:26:09.676Z,9.26
2023-04-21T03:28:39.049Z,9.23
2023-04-21T03:31:08.199Z,9.29
2023-04-21T03:33:37.576Z,9.20
2023-04-21T03:36:10.408Z,9.28
2023-04-21T03:38:40.472Z,9.29
2023-04-21T03:41:10.880Z,9.12
2023-04-21T03:43:40.129Z,9.26
2023-04-21T03:46:09.422Z,9.29
2023-04-21T03:48:38.473Z,9.38
2023-04-21T03:51:10.642Z,9.45
2023-04-21T03:53:40.008Z,9.43
2023-04-21T03:56:10.893Z,9.46
2023-04-21T03:58:40.103Z,9.42
2023-04-21T04:01:09.250Z,9.38
2023-04-21T04:03:43.397Z,9.46
2023-04-21T04:06:12.579Z,9.52
2023-04-21T04:08:41.843Z,9.59
2023-04-21T04:11:12.446Z,9.63
2023-04-21T04:13:44.365Z,9.55
2023-04-21T04:16:15.217Z,9.47
2023-04-21T04:18:45.772Z,9.64
2023-04-21T04:21:19.311Z,9.71
2023-04-21T04:23:48.445Z,9.64
2023-04-21T04:26:21.567Z,9.62
2023-04-21T04:28:50.751Z,9.85
2023-04-21T04:31:20.363Z,9.91
2023-04-21T04:33:49.468Z,9.89
2023-04-21T04:36:21.613Z,10.14
2023-04-21T04:38:53.129Z,10.03
2023-04-21T04:41:26.035Z,10.21
2023-04-21T04:43:55.162Z,10.27
2023-04-21T04:46:25.033Z,10.48
2023-04-21T04:48:54.564Z,10.87
2023-04-21T04:51:23.794Z,10.62
2023-04-21T04:53:53.199Z,11.23
2023-04-21T04:56:23.650Z,11.32
2023-04-21T04:58:52.661Z,11.38
2023-04-21T05:01:34.309Z,11.41
2023-04-21T05:04:04.068Z,11.87
2023-04-21T05:06:34.922Z,11.88
2023-04-21T05:09:07.066Z,12.53
2023-04-21T05:11:37.336Z,12.63
2023-04-21T05:14:06.460Z,12.35
2023-04-21T05:16:37.849Z,11.85
2023-04-21T05:19:08.879Z,12.66
2023-04-21T05:21:38.950Z,12.30
2023-04-21T05:24:08.279Z,12.20
2023-04-21T05:26:38.900Z,12.11
2023-04-21T05:29:08.112Z,12.35
2023-04-21T05:31:39.187Z,12.51
2023-04-21T05:34:08.716Z,12.16
2023-04-21T05:36:37.858Z,12.27
2023-04-21T05:39:07.144Z,12.38
2023-04-21T05:41:36.266Z,12.77
2023-04-21T05:44:09.296Z,12.73
2023-04-21T05:46:41.506Z,12.62
2023-04-21T05:49:10.558Z,12.15
2023-04-21T05:51:40.204Z,12.13
2023-04-21T05:54:10.090Z,12.25
2023-04-21T05:56:39.795Z,12.72
2023-04-21T05:59:11.938Z,12.48
2023-04-21T06:01:43.202Z,12.26
2023-04-21T06:04:12.651Z,12.55
2023-04-21T06:06:41.931Z,12.42
2023-04-21T06:09:15.770Z,12.91
2023-04-21T06:11:44.903Z,12.66
2023-04-21T06:14:15.513Z,13.17
2023-04-21T06:16:44.653Z,12.78
2023-04-21T06:19:16.868Z,13.14
2023-04-21T06:21:45.987Z,13.06
2023-04-21T06:24:15.594Z,12.98
2023-04-21T06:26:51.394Z,12.49
2023-04-21T06:29:23.993Z,12.35
2023-04-21T06:31:53.608Z,12.81
2023-04-21T06:34:25.582Z,12.83
2023-04-21T06:36:57.621Z,12.49
2023-04-21T06:39:27.482Z,12.48
2023-04-21T06:41:58.243Z,12.75
2023-04-21T06:44:32.474Z,12.86
2023-04-21T06:47:01.850Z,12.87
2023-04-21T06:49:31.135Z,13.15
2023-04-21T06:52:02.075Z,12.76
2023-04-21T06:54:31.434Z,12.95
2023-04-21T06:57:00.765Z,13.67
2023-04-21T06:59:35.212Z,13.02
2023-04-21T07:02:04.419Z,13.05
2023-04-21T07:04:36.447Z,13.52
2023-04-21T07:07:05.553Z,13.50
2023-04-21T07:09:35.625Z,14.19
2023-04-21T07:12:04.940Z,14.21
2023-04-21T07:14:37.400Z,13.45
2023-04-21T07:17:09.079Z,13.46
2023-04-21T07:19:40.795Z,13.63
2023-04-21T07:22:10.980Z,13.63
2023-04-21T07:24:40.055Z,14.05
2023-04-21T07:27:09.263Z,14.21
2023-04-21T07:29:45.970Z,14.41
2023-04-21T07:32:24.716Z,13.53
2023-04-21T07:34:53.954Z,13.84
2023-04-21T07:37:24.938Z,14.09
2023-04-21T07:39:54.515Z,14.38
2023-04-21T07:42:27.682Z,13.98
2023-04-21T07:45:02.618Z,14.24
2023-04-21T07:47:34.472Z,14.71
2023-04-21T07:50:03.646Z,14.44
2023-04-21T07:52:32.877Z,14.50
2023-04-21T07:55:02.171Z,14.73
2023-04-21T07:57:34.542Z,15.33
2023-04-21T08:00:06.219Z,15.33
2023-04-21T08:02:41.421Z,15.65
2023-04-21T08:05:11.320Z,16.28
2023-04-21T08:07:41.155Z,16.51
2023-04-21T08:10:11.487Z,15.87
2023-04-21T08:12:40.369Z,15.29
2023-04-21T08:15:12.642Z,15.90
2023-04-21T08:21:53.269Z,16.71
2023-04-21T08:24:22.993Z,16.36
2023-04-21T08:26:52.486Z,16.62
2023-04-21T08:29:21.594Z,16.86
2023-04-21T08:31:52.140Z,17.34
2023-04-21T08:34:23.627Z,16.83
2023-04-21T08:36:54.123Z,17.02
2023-04-21T08:39:25.594Z,16.30
2023-04-21T08:41:54.979Z,17.04
2023-04-21T08:44:24.003Z,16.46
2023-04-21T08:47:07.373Z,15.40
2023-04-21T08:49:38.285Z,16.09
2023-04-21T08:52:09.256Z,15.63
2023-04-21T08:54:39.136Z,16.07
2023-04-21T08:57:15.204Z,16.50
2023-04-21T08:59:45.748Z,16.39
2023-04-21T09:02:18.029Z,17.40
2023-04-21T09:04:52.395Z,17.48
2023-04-21T09:07:33.583Z,17.65
2023-04-21T09:10:06.002Z,16.74
2023-04-21T09:12:35.039Z,18.01
2023-04-21T09:15:06.430Z,17.34
2023-04-21T09:17:40.628Z,17.84
2023-04-21T09:20:21.934Z,18.67
2023-04-21T09:22:52.671Z,18.46
2023-04-21T09:25:24.871Z,17.09
2023-04-21T09:27:58.353Z,16.40
2023-04-21T09:30:27.834Z,17.28
2023-04-21T09:32:59.906Z,17.70
2023-04-21T09:35:30.188Z,15.79
2023-04-21T09:37:59.571Z,15.72
2023-04-21T09:40:30.363Z,16.72
2023-04-21T09:42:59.650Z,17.14
2023-04-21T09:45:40.321Z,16.76
2023-04-21T09:48:14.057Z,16.42
2023-04-21T09:53:34.828Z,16.30
2023-04-21T09:56:05.431Z,15.84
2023-04-21T09:58:40.527Z,16.51
2023-04-21T10:01:10.986Z,17.81
2023-04-21T10:03:43.160Z,17.07
2023-04-21T10:06:13.605Z,17.78
2023-04-21T10:08:43.287Z,16.71
2023-04-21T10:11:13.827Z,16.85
2023-04-21T10:13:43.802Z,16.30
2023-04-21T10:16:13.174Z,15.94
2023-04-21T10:18:46.797Z,15.27
2023-04-21T10:21:21.316Z,15.65
2023-04-21T10:23:52.616Z,15.51
2023-04-21T10:26:23.630Z,16.53
2023-04-21T10:28:57.792Z,17.15
2023-04-21T10:31:35.398Z,15.76
2023-04-21T10:34:30.844Z,15.94
2023-04-21T10:37:19.826Z,16.69
2023-04-21T10:39:57.191Z,18.34
2023-04-21T10:42:28.945Z,20.54
2023-04-21T10:45:19.191Z,22.55
2023-04-21T10:47:51.580Z,22.41
2023-04-21T10:50:25.553Z,19.79
2023-04-21T10:52:57.756Z,19.55
2023-04-21T10:55:31.396Z,20.80
2023-04-21T10:58:05.300Z,19.50
2023-04-21T11:00:35.093Z,19.11
2023-04-21T11:03:11.083Z,19.34
2023-04-21T11:05:42.896Z,19.27
2023-04-21T11:08:14.509Z,21.54
2023-04-21T11:10:49.121Z,19.98
2023-04-21T11:13:18.657Z,21.47
2023-04-21T11:16:02.320Z,19.24
2023-04-21T11:18:35.252Z,19.40
2023-04-21T11:21:18.460Z,18.67
2023-04-21T11:23:52.094Z,18.88
2023-04-21T11:26:31.940Z,21.09
2023-04-21T11:29:06.140Z,20.45
2023-04-21T11:31:35.774Z,19.63
2023-04-21T11:34:06.926Z,19.39
2023-04-21T11:36:38.555Z,19.38
2023-04-21T11:39:10.146Z,19.65
2023-04-21T11:41:41.836Z,21.29
2023-04-21T11:44:11.560Z,21.42
2023-04-21T11:46:47.919Z,20.87
2023-04-21T11:49:18.508Z,22.47
2023-04-21T11:51:51.889Z,23.05
2023-04-21T11:54:22.116Z,23.40
2023-04-21T11:57:09.259Z,22.90
2023-04-21T11:59:38.517Z,21.77
2023-04-21T12:02:15.058Z,22.17
2023-04-21T12:04:59.061Z,20.79
2023-04-21T12:07:33.473Z,21.47
2023-04-21T12:10:14.680Z,23.08
2023-04-21T12:12:44.999Z,23.82
2023-04-21T12:15:20.402Z,25.01
2023-04-21T12:17:51.017Z,27.28
2023-04-21T12:20:21.691Z,23.01
2023-04-21T12:22:52.546Z,21.49
2023-04-21T12:25:21.568Z,21.69
2023-04-21T12:27:51.389Z,23.00
2023-04-21T12:30:25.780Z,23.99
2023-04-21T12:32:57.618Z,25.09
2023-04-21T12:35:30.850Z,24.31
2023-04-21T12:38:01.215Z,23.91
2023-04-21T12:40:32.175Z,23.34
2023-04-21T12:43:01.277Z,21.70
2023-04-21T12:45:32.973Z,21.06
2023-04-21T12:48:03.668Z,20.96
2023-04-21T12:50:32.718Z,20.22
2023-04-21T12:53:04.418Z,20.22
2023-04-21T12:55:36.126Z,21.39
2023-04-21T12:58:05.221Z,21.42
2023-04-21T13:00:36.489Z,22.95
2023-04-21T13:03:08.715Z,22.33
2023-04-21T13:05:37.855Z,24.18
2023-04-21T13:08:08.225Z,24.33
2023-04-21T13:10:37.856Z,24.44
2023-04-21T13:13:07.112Z,25.17
2023-04-21T13:15:38.181Z,22.98
2023-04-21T13:18:07.317Z,23.05
2023-04-21T13:20:36.490Z,22.43
2023-04-21T13:23:05.665Z,21.72
2023-04-21T13:25:36.307Z,21.46
2023-04-21T13:28:05.513Z,21.30
2023-04-21T13:30:34.617Z,21.08
2023-04-21T13:33:03.971Z,21.87
2023-04-21T13:35:33.270Z,23.69
2023-04-21T13:38:12.602Z,25.14
2023-04-21T13:40:48.827Z,25.61
2023-04-21T13:43:17.741Z,24.71
2023-04-21T13:45:48.261Z,21.78
2023-04-21T13:48:17.604Z,22.40
2023-04-21T13:50:58.672Z,22.02
2023-04-21T13:54:48.153Z,21.79
2023-04-21T13:57:30.188Z,20.18
2023-04-21T13:59:59.956Z,22.18
2023-04-21T14:02:29.342Z,22.80
2023-04-21T14:05:01.559Z,23.36
2023-04-21T14:07:35.878Z,24.48
2023-04-21T14:10:06.488Z,24.69
2023-04-21T14:12:39.629Z,24.49
2023-04-21T14:15:09.705Z,22.75
2023-04-21T14:17:38.861Z,21.52
2023-04-21T14:20:10.768Z,20.83
2023-04-21T14:22:39.916Z,19.87
2023-04-21T14:25:11.562Z,19.41
2023-04-21T14:27:43.365Z,19.26
2023-04-21T14:30:13.738Z,18.62
2023-04-21T14:32:45.335Z,18.56
2023-04-21T14:35:15.133Z,18.50
2023-04-21T14:37:44.064Z,18.20
2023-04-21T14:40:13.643Z,18.43
2023-04-21T14:42:46.824Z,18.47
2023-04-21T14:45:17.791Z,18.50
2023-04-21T14:47:47.308Z,18.36
2023-04-21T14:50:16.337Z,18.38
2023-04-21T14:52:50.963Z,18.12
2023-04-21T14:55:23.866Z,17.56
2023-04-21T14:57:54.396Z,17.48
2023-04-21T15:00:24.296Z,17.24
2023-04-21T15:02:53.860Z,17.30
2023-04-21T15:05:22.994Z,17.44
2023-04-21T15:07:52.720Z,17.47
2023-04-21T15:10:21.904Z,17.29
2023-04-21T15:12:51.205Z,16.59
2023-04-21T15:15:23.615Z,16.39
2023-04-21T15:17:52.963Z,16.20
2023-04-21T15:20:32.557Z,16.25
2023-04-21T15:23:10.342Z,15.92
2023-04-21T15:25:43.370Z,15.90
2023-04-21T15:28:13.383Z,15.57
2023-04-21T15:30:43.981Z,15.61
2023-04-21T15:33:12.997Z,15.67
2023-04-21T15:35:41.983Z,15.83
2023-04-21T15:38:35.857Z,14.80
2023-04-21T15:41:06.191Z,14.36
2023-04-21T15:43:36.937Z,14.45
2023-04-21T15:46:13.467Z,14.44
2023-04-21T15:48:42.799Z,14.91
2023-04-21T15:51:11.980Z,14.89
2023-04-21T15:53:47.374Z,14.91
2023-04-21T15:56:17.138Z,15.08
2023-04-21T15:58:46.637Z,15.60
2023-04-21T16:01:17.650Z,15.70
2023-04-21T16:03:47.749Z,15.30
2023-04-21T16:06:17.068Z,15.43
2023-04-21T16:08:46.069Z,15.48
2023-04-21T16:11:15.193Z,15.31
2023-04-21T16:13:44.307Z,15.19
2023-04-21T16:16:13.652Z,15.13
2023-04-21T16:18:44.273Z,15.36
2023-04-21T16:21:13.260Z,14.87
2023-04-21T16:23:43.141Z,14.93
2023-04-21T16:26:12.211Z,14.62
2023-04-21T16:28:41.607Z,14.35
2023-04-21T16:31:10.622Z,14.54
2023-04-21T16:33:42.287Z,14.84
2023-04-21T16:36:12.839Z,14.74
2023-04-21T16:38:43.394Z,14.91
2023-04-21T16:41:17.186Z,14.72
2023-04-21T16:43:47.434Z,14.13
2023-04-21T16:46:17.020Z,14.21
2023-04-21T16:48:46.462Z,14.12
2023-04-21T16:51:17.518Z,14.70
2023-04-21T16:53:46.498Z,14.76
2023-04-21T16:56:15.664Z,14.36
2023-04-21T16:58:45.022Z,14.58
2023-04-21T17:01:14.414Z,14.70
2023-04-21T17:03:43.690Z,14.24
2023-04-21T17:06:17.330Z,14.47
2023-04-21T17:08:47.634Z,14.63
2023-04-21T17:11:16.623Z,14.39
2023-04-21T17:13:48.404Z,14.18
2023-04-21T17:16:21.225Z,13.82
2023-04-21T17:18:50.796Z,13.92
2023-04-21T17:21:19.953Z,13.51
2023-04-21T17:23:51.344Z,13.48
2023-04-21T17:26:21.128Z,13.59
2023-04-21T17:28:50.314Z,13.61
2023-04-21T17:31:19.380Z,13.68
2023-04-21T17:33:48.696Z,13.60
2023-04-21T17:36:18.025Z,13.36
2023-04-21T17:38:47.610Z,13.15
2023-04-21T17:41:28.273Z,12.93
2023-04-21T17:44:01.054Z,12.77
2023-04-21T17:46:30.851Z,12.98
2023-04-21T17:49:00.039Z,12.89
2023-04-21T17:51:29.027Z,12.87
2023-04-21T17:54:00.418Z,12.93
2023-04-21T17:56:31.193Z,12.98
2023-04-21T17:59:00.518Z,12.72
2023-04-21T18:01:30.069Z,12.53
2023-04-21T18:04:01.314Z,12.70
2023-04-21T18:06:32.012Z,12.71
2023-04-21T18:09:01.339Z,12.73
2023-04-21T18:11:31.880Z,12.60
2023-04-21T18:14:03.703Z,12.79
2023-04-21T18:16:32.661Z,12.47
2023-04-21T18:19:01.784Z,12.72
2023-04-21T18:21:40.875Z,12.43
2023-04-21T18:24:10.050Z,12.59
2023-04-21T18:26:41.507Z,12.64
2023-04-21T18:29:10.530Z,12.31
2023-04-21T18:31:40.194Z,12.83
2023-04-21T18:34:09.251Z,13.03
2023-04-21T18:36:38.895Z,12.86
2023-04-21T18:39:08.033Z,12.91
2023-04-21T18:41:37.191Z,12.85
2023-04-21T18:44:07.753Z,12.92
2023-04-21T18:46:37.349Z,13.04
2023-04-21T18:49:06.823Z,13.04
2023-04-21T18:51:38.308Z,12.65
2023-04-21T18:54:08.014Z,12.65
2023-04-21T18:56:37.570Z,12.71
2023-04-21T18:59:09.784Z,12.84
2023-04-21T19:01:40.650Z,13.02
2023-04-21T19:04:11.361Z,12.89
2023-04-21T19:06:43.632Z,12.97
2023-04-21T19:09:12.862Z,12.74
2023-04-21T19:11:42.100Z,12.85
2023-04-21T19:14:14.203Z,12.57
2023-04-21T19:16:43.271Z,12.77
2023-04-21T19:19:14.570Z,12.42
2023-04-21T19:21:43.617Z,12.22
2023-04-21T19:24:12.841Z,12.50
2023-04-21T19:26:42.074Z,12.14
2023-04-21T19:29:15.017Z,12.00
2023-04-21T19:31:43.937Z,11.94
2023-04-21T19:34:13.732Z,11.92
2023-04-21T19:36:43.706Z,12.02
2023-04-21T19:39:13.599Z,11.98
2023-04-21T19:41:43.108Z,12.18
2023-04-21T19:44:13.837Z,12.26
2023-04-21T19:46:45.178Z,12.16
2023-04-21T19:49:14.372Z,12.03
2023-04-21T19:51:45.964Z,12.33
2023-04-21T19:54:16.267Z,12.21
2023-04-21T19:56:45.622Z,12.55
2023-04-21T19:59:15.970Z,12.36
2023-04-21T20:01:45.049Z,12.33
2023-04-21T20:04:14.537Z,12.32
2023-04-21T20:06:47.173Z,11.84
2023-04-21T20:09:16.252Z,11.96
2023-04-21T20:11:45.530Z,11.97
2023-04-21T20:14:16.966Z,12.07
2023-04-21T20:16:46.536Z,12.03
2023-04-21T20:19:23.194Z,12.25
2023-04-21T20:21:52.343Z,12.41
2023-04-21T20:24:21.418Z,12.38
2023-04-21T20:26:50.894Z,12.43
2023-04-21T20:29:21.562Z,12.18
2023-04-21T20:31:50.843Z,11.81
2023-04-21T20:34:20.079Z,11.58
2023-04-21T20:36:49.012Z,11.66
2023-04-21T20:39:18.544Z,11.87
2023-04-21T20:41:53.054Z,11.93
2023-04-21T20:44:31.683Z,11.65
2023-04-21T20:47:01.663Z,11.68
2023-04-21T20:49:30.774Z,11.56
2023-04-21T20:52:01.485Z,11.62
2023-04-21T20:54:30.670Z,11.64
2023-04-21T20:56:59.729Z,11.67
2023-04-21T20:59:28.633Z,11.76
2023-04-21T21:01:58.932Z,11.66
2023-04-21T21:04:30.697Z,11.72
2023-04-21T21:07:06.091Z,11.71
2023-04-21T21:09:35.215Z,11.53
2023-04-21T21:12:04.268Z,11.56
2023-04-21T21:14:33.326Z,11.41
2023-04-21T21:17:04.041Z,11.29
2023-04-21T21:19:34.882Z,11.57
2023-04-21T21:22:04.301Z,11.64
2023-04-21T21:24:33.087Z,11.30
2023-04-21T21:27:02.441Z,11.27
2023-04-21T21:29:31.451Z,11.35
2023-04-21T21:32:00.571Z,11.20
2023-04-21T21:34:31.046Z,11.26
2023-04-21T21:37:00.542Z,11.03
2023-04-21T21:39:30.025Z,11.22
2023-04-21T21:41:58.973Z,11.12
2023-04-21T21:44:27.851Z,11.02
2023-04-21T21:46:57.080Z,11.04
2023-04-21T21:49:26.056Z,10.96
2023-04-21T21:51:59.501Z,10.86
2023-04-21T21:54:31.581Z,10.85
2023-04-21T21:57:01.383Z,10.87
2023-04-21T21:59:30.398Z,10.84
2023-04-21T22:01:59.737Z,10.63
2023-04-21T22:04:28.908Z,10.75
2023-04-21T22:06:59.524Z,10.81
2023-04-21T22:09:30.372Z,10.73
2023-04-21T22:11:59.450Z,10.70
2023-04-21T22:14:28.747Z,10.57
2023-04-21T22:16:59.124Z,10.58
2023-04-21T22:19:29.383Z,10.57
2023-04-21T22:22:00.201Z,10.57
2023-04-21T22:24:29.395Z,10.49
2023-04-21T22:26:58.518Z,10.40
2023-04-21T22:29:27.486Z,10.38
2023-04-21T22:31:56.414Z,10.35
2023-04-21T22:34:27.527Z,10.57
2023-04-21T22:36:57.668Z,10.61
2023-04-21T22:39:31.385Z,10.53
2023-04-21T22:42:01.085Z,10.48
2023-04-21T22:44:31.089Z,10.31
2023-04-21T22:47:00.798Z,10.46
2023-04-21T22:49:29.804Z,10.41
2023-04-21T22:51:59.274Z,10.40
2023-04-21T22:54:29.860Z,10.47
2023-04-21T22:56:58.733Z,10.33
2023-04-21T22:59:27.929Z,10.35
2023-04-21T23:01:57.159Z,10.34
2023-04-21T23:04:26.547Z,9.98
2023-04-21T23:06:56.195Z,9.88
2023-04-21T23:09:25.128Z,9.88
2023-04-21T23:11:55.713Z,10.40
2023-04-21T23:14:24.857Z,10.16
2023-04-21T23:16:53.965Z,10.08
2023-04-21T23:19:23.390Z,10.00
2023-04-21T23:21:52.346Z,10.44
2023-04-21T23:24:23.466Z,10.16
2023-04-21T23:26:53.773Z,10.05
2023-04-21T23:29:24.697Z,9.91
2023-04-21T23:31:56.688Z,10.00
2023-04-21T23:34:26.203Z,10.33
2023-04-21T23:36:55.245Z,10.28
2023-04-21T23:39:24.314Z,9.79
2023-04-21T23:41:53.535Z,9.79
2023-04-21T23:44:24.539Z,9.72
2023-04-21T23:46:53.386Z,9.66
2023-04-21T23:49:23.226Z,9.61
2023-04-21T23:51:52.177Z,9.78
2023-04-21T23:54:23.611Z,9.67
2023-04-21T23:56:59.664Z,9.64
2023-04-21T23:59:30.185Z,9.74
